Trinidad, Trinidad and Tobago
Current Conditions -  °F | °C
As of 12:00 PM on Sunday 25 Jan 2015 (Local Time) from TTPP Reporting Station
Rain Showers Rain Showers  
Wind Chill: 86°   Ceiling: 1600
Heat Index: 90°   Visibility: 6mi
Dew Point: 70°   Wind: 16mph
Humidity: 58%   Direction: 120°ESE
Pressure: 29.94"   Gusts: NA
Location:  10.62°N, 61.35°W
Report Text: TTPP 251600Z 12014KT 9999 VCSH BKN016 30/21 Q1014 NOSIG
Loading
Personal Weather Stations






























Interactive Weather Map New forecast layout! Learn more

10-Day Weather Forecast

Advertisements
Track Severe Weather on mobile